createdAt,value
2018-08-22T00:00:03.844Z,2.40
2018-08-22T00:00:37.920Z,2.50
2018-08-22T00:01:11.762Z,2.30
2018-08-22T00:01:45.655Z,2.33
2018-08-22T00:02:19.642Z,3.07
2018-08-22T00:02:53.548Z,2.17
2018-08-22T00:03:27.712Z,2.30
2018-08-22T00:04:01.605Z,2.20
2018-08-22T00:04:35.515Z,2.50
2018-08-22T00:05:09.413Z,2.80
2018-08-22T00:05:43.274Z,3.00
2018-08-22T00:06:17.155Z,2.50
2018-08-22T00:06:51.059Z,3.20
2018-08-22T00:07:24.945Z,2.73
2018-08-22T00:07:58.772Z,2.80
2018-08-22T00:08:38.027Z,3.27
2018-08-22T00:09:11.895Z,3.40
2018-08-22T00:09:45.833Z,3.23
2018-08-22T00:10:19.675Z,3.63
2018-08-22T00:10:53.553Z,3.23
2018-08-22T00:11:27.417Z,2.97
2018-08-22T00:14:18.889Z,2.47
2018-08-22T00:14:52.785Z,2.87
2018-08-22T00:15:26.607Z,2.30
2018-08-22T00:16:00.499Z,3.10
2018-08-22T00:16:34.345Z,2.40
2018-08-22T00:17:08.189Z,2.33
2018-08-22T00:17:42.140Z,2.43
2018-08-22T00:18:16.309Z,2.43
2018-08-22T00:18:50.346Z,2.00
2018-08-22T00:19:24.202Z,2.17
2018-08-22T00:19:58.039Z,2.07
2018-08-22T00:20:31.916Z,2.20
2018-08-22T00:21:05.893Z,2.30
2018-08-22T00:21:39.786Z,1.93
2018-08-22T00:22:13.630Z,1.73
2018-08-22T00:22:48.443Z,2.40
2018-08-22T00:23:22.384Z,1.90
2018-08-22T00:23:56.578Z,1.90
2018-08-22T00:24:30.759Z,1.90
2018-08-22T00:25:04.988Z,2.10
2018-08-22T00:25:38.837Z,1.37
2018-08-22T00:26:12.687Z,2.03
2018-08-22T00:26:46.852Z,2.13
2018-08-22T00:27:20.810Z,2.30
2018-08-22T00:27:54.721Z,1.93
2018-08-22T00:28:28.592Z,2.30
2018-08-22T00:29:02.562Z,1.93
2018-08-22T00:29:36.554Z,2.30
2018-08-22T00:30:10.476Z,2.17
2018-08-22T00:30:44.312Z,1.87
2018-08-22T00:31:18.158Z,2.10
2018-08-22T00:31:52.224Z,2.17
2018-08-22T00:32:26.066Z,2.03
2018-08-22T00:32:59.950Z,1.87
2018-08-22T00:33:34.140Z,1.83
2018-08-22T00:34:07.966Z,1.80
2018-08-22T00:34:42.146Z,1.73
2018-08-22T00:35:16.068Z,2.10
2018-08-22T00:35:50.132Z,2.00
2018-08-22T00:36:23.992Z,1.90
2018-08-22T00:36:57.880Z,1.90
2018-08-22T00:37:31.696Z,2.17
2018-08-22T00:38:05.560Z,1.80
2018-08-22T00:38:39.458Z,1.90
2018-08-22T00:39:13.413Z,1.63
2018-08-22T00:39:47.340Z,1.63
2018-08-22T00:40:21.384Z,1.63
2018-08-22T00:40:55.298Z,1.53
2018-08-22T00:41:29.168Z,2.27
2018-08-22T00:47:06.676Z,1.70
2018-08-22T00:47:40.533Z,1.60
2018-08-22T00:48:14.352Z,1.70
2018-08-22T00:48:48.248Z,1.77
2018-08-22T00:49:22.106Z,2.00
2018-08-22T00:49:56.008Z,1.80
2018-08-22T00:50:29.860Z,1.57
2018-08-22T00:51:03.752Z,1.80
2018-08-22T00:51:37.651Z,1.73
2018-08-22T00:52:11.558Z,1.70
2018-08-22T00:52:46.446Z,1.90
2018-08-22T00:53:20.329Z,2.13
2018-08-22T00:53:54.183Z,2.00
2018-08-22T00:54:28.068Z,1.90
2018-08-22T00:55:01.950Z,1.97
2018-08-22T00:55:35.838Z,2.03
2018-08-22T00:56:10.087Z,1.40
2018-08-22T00:56:43.969Z,2.00
2018-08-22T00:57:18.162Z,1.77
2018-08-22T00:57:52.067Z,1.70
2018-08-22T00:58:26.255Z,2.10
2018-08-22T00:59:00.128Z,1.67
2018-08-22T00:59:33.959Z,1.70
2018-08-22T01:00:08.145Z,1.83
2018-08-22T01:00:42.053Z,1.90
2018-08-22T01:01:15.946Z,1.47
2018-08-22T01:01:49.941Z,1.67
2018-08-22T01:02:24.099Z,1.43
2018-08-22T01:02:57.970Z,2.17
2018-08-22T01:03:32.173Z,2.23
2018-08-22T01:04:06.023Z,1.87
2018-08-22T01:04:39.891Z,2.47
2018-08-22T01:05:13.775Z,1.60
2018-08-22T01:05:47.599Z,1.90
2018-08-22T01:06:22.035Z,2.00
2018-08-22T01:06:56.014Z,2.00
2018-08-22T01:07:29.925Z,1.53
2018-08-22T01:08:03.843Z,2.00
2018-08-22T01:08:37.855Z,1.87
2018-08-22T01:09:11.727Z,2.10
2018-08-22T01:09:45.586Z,1.67
2018-08-22T01:10:20.071Z,1.90
2018-08-22T01:10:53.919Z,1.93
2018-08-22T01:11:28.153Z,1.70
2018-08-22T01:12:02.001Z,1.97
2018-08-22T01:12:35.852Z,1.77
2018-08-22T01:13:09.725Z,1.40
2018-08-22T01:13:43.581Z,1.50
2018-08-22T01:14:17.407Z,1.60
2018-08-22T01:14:51.485Z,1.63
2018-08-22T01:15:25.363Z,1.80
2018-08-22T01:15:59.247Z,1.60
2018-08-22T01:16:33.163Z,2.10
2018-08-22T01:17:07.071Z,1.53
2018-08-22T01:17:40.896Z,1.83
2018-08-22T01:18:15.147Z,2.07
2018-08-22T01:18:49.038Z,1.60
2018-08-22T01:19:23.229Z,1.87
2018-08-22T01:19:57.125Z,2.07
2018-08-22T01:20:31.053Z,1.73
2018-08-22T01:21:05.536Z,2.00
2018-08-22T01:21:39.425Z,1.63
2018-08-22T01:22:13.285Z,1.67
2018-08-22T01:22:47.859Z,2.00
2018-08-22T01:23:21.757Z,1.60
2018-08-22T01:23:55.643Z,2.13
2018-08-22T01:24:29.475Z,1.57
2018-08-22T01:25:03.748Z,1.87
2018-08-22T01:25:37.564Z,1.80
2018-08-22T01:26:11.530Z,1.80
2018-08-22T01:26:45.425Z,1.70
2018-08-22T01:27:21.633Z,1.70
2018-08-22T01:27:55.527Z,2.30
2018-08-22T01:28:29.379Z,1.70
2018-08-22T01:29:03.227Z,1.80
2018-08-22T01:29:37.049Z,1.90
2018-08-22T01:30:10.927Z,2.00
2018-08-22T01:30:44.773Z,1.67
2018-08-22T01:31:18.609Z,1.80
2018-08-22T01:31:52.485Z,2.13
2018-08-22T01:32:26.309Z,1.80
2018-08-22T01:33:00.175Z,2.13
2018-08-22T01:33:34.197Z,1.83
2018-08-22T01:34:08.037Z,1.90
2018-08-22T01:34:42.441Z,1.80
2018-08-22T01:35:16.322Z,1.60
2018-08-22T01:35:50.223Z,1.70
2018-08-22T01:36:24.072Z,1.80
2018-08-22T01:36:57.943Z,2.10
2018-08-22T01:37:31.857Z,1.63
2018-08-22T01:38:05.979Z,1.80
2018-08-22T01:38:39.875Z,2.00
2018-08-22T01:39:13.741Z,2.03
2018-08-22T01:39:48.343Z,2.40
2018-08-22T01:40:22.239Z,2.00
2018-08-22T01:40:56.070Z,1.70
2018-08-22T01:41:30.401Z,1.93
2018-08-22T01:42:04.327Z,1.80
2018-08-22T01:42:38.155Z,1.90
2018-08-22T01:43:12.232Z,1.83
2018-08-22T01:43:46.081Z,2.03
2018-08-22T01:44:19.960Z,1.70
2018-08-22T01:44:53.875Z,2.00
2018-08-22T01:45:27.771Z,1.90
2018-08-22T01:46:01.661Z,1.63
2018-08-22T01:46:35.562Z,2.40
2018-08-22T01:47:09.509Z,1.97
2018-08-22T01:47:43.772Z,1.83
2018-08-22T01:48:17.650Z,1.70
2018-08-22T01:48:51.575Z,2.00
2018-08-22T01:49:25.465Z,2.00
2018-08-22T01:49:59.329Z,2.00
2018-08-22T01:50:33.269Z,1.80
2018-08-22T01:51:07.170Z,1.80
2018-08-22T01:51:41.089Z,2.07
2018-08-22T01:52:14.992Z,1.80
2018-08-22T01:52:48.853Z,2.10
2018-08-22T01:53:22.745Z,2.30
2018-08-22T01:53:56.607Z,1.77
2018-08-22T01:54:30.455Z,1.70
2018-08-22T01:55:04.659Z,1.93
2018-08-22T01:55:38.515Z,1.90
2018-08-22T01:56:12.361Z,1.90
2018-08-22T01:56:46.253Z,1.70
2018-08-22T01:57:20.149Z,1.90
2018-08-22T01:57:53.979Z,1.70
2018-08-22T01:58:27.908Z,2.00
2018-08-22T01:59:01.746Z,2.07
2018-08-22T01:59:35.621Z,2.07
2018-08-22T02:00:09.759Z,2.07
2018-08-22T02:00:43.645Z,2.20
2018-08-22T02:01:17.511Z,1.80
2018-08-22T02:01:51.859Z,2.10
2018-08-22T02:02:26.177Z,2.00
2018-08-22T02:03:00.045Z,1.83
2018-08-22T02:03:33.919Z,1.77
2018-08-22T02:04:07.845Z,2.10
2018-08-22T02:04:41.669Z,1.73
2018-08-22T02:05:15.829Z,1.70
2018-08-22T02:05:49.723Z,2.13
2018-08-22T02:06:23.617Z,1.63
2018-08-22T02:06:57.855Z,1.60
2018-08-22T02:07:31.780Z,2.20
2018-08-22T02:08:05.681Z,2.10
2018-08-22T02:08:40.503Z,1.87
2018-08-22T02:09:14.349Z,1.90
2018-08-22T02:09:48.189Z,1.80
2018-08-22T02:10:22.031Z,2.07
2018-08-22T02:10:55.935Z,2.37
2018-08-22T02:11:29.794Z,1.93
2018-08-22T02:12:03.630Z,1.70
2018-08-22T02:12:37.507Z,2.03
2018-08-22T02:13:11.710Z,1.73
2018-08-22T02:13:45.606Z,2.00
2018-08-22T02:14:19.487Z,2.00
2018-08-22T02:14:53.433Z,1.80
2018-08-22T02:15:27.392Z,2.17
2018-08-22T02:16:01.363Z,1.70
2018-08-22T02:16:35.563Z,1.93
2018-08-22T02:17:09.699Z,2.37
2018-08-22T02:17:43.595Z,1.80
2018-08-22T02:18:17.517Z,1.70
2018-08-22T02:18:51.467Z,1.77
2018-08-22T02:19:25.311Z,2.07
2018-08-22T02:19:59.157Z,2.13
2018-08-22T02:20:33.032Z,1.80
2018-08-22T02:21:07.091Z,2.20
2018-08-22T02:21:40.950Z,1.93
2018-08-22T02:22:14.829Z,1.70
2018-08-22T02:22:48.765Z,1.77
2018-08-22T02:23:22.615Z,1.67
2018-08-22T02:23:56.456Z,2.37
2018-08-22T02:24:30.303Z,1.67
2018-08-22T02:25:04.666Z,2.10
2018-08-22T02:25:38.538Z,1.60
2018-08-22T02:26:12.422Z,2.20
2018-08-22T02:26:46.316Z,1.80
2018-08-22T02:27:20.354Z,1.80
2018-08-22T02:27:54.247Z,2.33
2018-08-22T02:28:28.093Z,1.90
2018-08-22T02:29:02.341Z,1.90
2018-08-22T02:29:36.173Z,2.50
2018-08-22T02:30:10.050Z,1.90
2018-08-22T02:30:43.934Z,1.90
2018-08-22T02:31:17.843Z,1.80
2018-08-22T02:31:51.719Z,2.17
2018-08-22T02:32:25.956Z,1.97
2018-08-22T02:32:59.839Z,2.40
2018-08-22T02:33:33.735Z,2.10
2018-08-22T02:34:07.637Z,1.57
2018-08-22T02:34:41.535Z,2.13
2018-08-22T02:35:15.449Z,1.70
2018-08-22T02:35:50.070Z,1.80
2018-08-22T02:36:23.932Z,1.80
2018-08-22T02:36:57.809Z,2.10
2018-08-22T02:37:31.625Z,2.00
2018-08-22T02:38:06.006Z,1.80
2018-08-22T02:38:39.901Z,1.93
2018-08-22T02:39:13.787Z,2.10
2018-08-22T02:39:47.963Z,1.97
2018-08-22T02:40:21.835Z,2.00
2018-08-22T02:40:57.321Z,2.17
2018-08-22T02:41:31.187Z,2.00
2018-08-22T02:42:05.195Z,2.10
2018-08-22T02:42:39.342Z,2.50
2018-08-22T02:43:13.285Z,1.83
2018-08-22T02:43:47.105Z,1.80
2018-08-22T02:44:20.979Z,2.47
2018-08-22T02:44:54.829Z,1.80
2018-08-22T02:45:28.737Z,2.30
2018-08-22T02:46:03.049Z,2.30
2018-08-22T02:46:36.893Z,2.13
2018-08-22T02:47:10.827Z,1.97
2018-08-22T02:47:44.755Z,2.53
2018-08-22T02:48:18.785Z,2.10
2018-08-22T02:48:55.299Z,2.20
2018-08-22T02:49:29.167Z,1.90
2018-08-22T02:50:03.333Z,1.63
2018-08-22T02:50:37.227Z,2.10
2018-08-22T02:51:11.143Z,2.70
2018-08-22T02:51:45.347Z,2.00
2018-08-22T02:52:19.225Z,2.30
2018-08-22T02:52:53.071Z,2.07
2018-08-22T02:53:26.965Z,1.90
2018-08-22T02:54:00.833Z,2.60
2018-08-22T02:54:34.721Z,2.70
2018-08-22T02:55:08.607Z,2.27
2018-08-22T02:55:42.857Z,2.10
2018-08-22T02:56:16.715Z,1.90
2018-08-22T02:56:50.885Z,2.30
2018-08-22T02:57:24.747Z,1.83
2018-08-22T02:57:58.597Z,1.87
2018-08-22T02:58:32.558Z,2.00
2018-08-22T02:59:06.377Z,2.00
2018-08-22T02:59:40.881Z,2.00
2018-08-22T03:00:14.789Z,2.33
2018-08-22T03:00:48.672Z,2.33
2018-08-22T03:01:22.553Z,3.00
2018-08-22T03:01:56.423Z,2.50
2018-08-22T03:02:30.295Z,2.10
2018-08-22T03:03:04.136Z,1.77
2018-08-22T03:03:38.239Z,2.40
2018-08-22T03:04:12.258Z,2.13
2018-08-22T03:04:46.089Z,2.20
2018-08-22T03:05:19.977Z,2.50
2018-08-22T03:05:53.779Z,2.10
2018-08-22T03:06:27.989Z,2.63
2018-08-22T03:07:01.896Z,2.00
2018-08-22T03:07:35.771Z,2.30
2018-08-22T03:08:09.978Z,1.63
2018-08-22T03:08:43.893Z,2.37
2018-08-22T03:09:17.793Z,2.57
2018-08-22T03:09:51.609Z,2.17
2018-08-22T03:10:25.477Z,1.83
2018-08-22T03:10:59.383Z,2.20
2018-08-22T03:11:33.227Z,1.90
2018-08-22T03:12:07.397Z,2.00
2018-08-22T03:12:41.240Z,1.97
2018-08-22T03:13:15.059Z,2.33
2018-08-22T03:13:49.010Z,2.30
2018-08-22T03:14:22.833Z,2.00
2018-08-22T03:14:56.721Z,2.30
2018-08-22T03:15:30.604Z,2.43
2018-08-22T03:16:04.641Z,2.20
2018-08-22T03:16:38.494Z,2.70
2018-08-22T03:17:12.674Z,2.00
2018-08-22T03:17:46.506Z,1.83
2018-08-22T03:18:20.368Z,2.30
2018-08-22T03:18:54.227Z,1.90
2018-08-22T03:19:28.028Z,2.47
2018-08-22T03:20:01.981Z,2.30
2018-08-22T03:20:35.893Z,2.17
2018-08-22T03:21:09.809Z,2.17
2018-08-22T03:21:43.725Z,1.97
2018-08-22T03:22:18.065Z,2.40
2018-08-22T03:22:51.960Z,2.17
2018-08-22T03:23:25.904Z,2.90
2018-08-22T03:23:59.817Z,2.70
2018-08-22T03:24:33.663Z,2.60
2018-08-22T03:25:07.506Z,2.53
2018-08-22T03:25:41.632Z,2.30
2018-08-22T03:26:15.660Z,2.10
2018-08-22T03:26:49.654Z,2.30
2018-08-22T03:27:23.515Z,2.20
2018-08-22T03:27:57.448Z,1.80
2018-08-22T03:28:31.306Z,1.93
2018-08-22T03:29:05.165Z,2.27
2018-08-22T03:29:39.185Z,1.97
2018-08-22T03:30:13.072Z,2.23
2018-08-22T03:30:47.657Z,2.23
2018-08-22T03:31:21.576Z,2.70
2018-08-22T03:31:55.912Z,2.20
2018-08-22T03:32:29.758Z,2.10
2018-08-22T03:33:03.615Z,2.83
2018-08-22T03:33:37.552Z,2.30
2018-08-22T03:34:11.431Z,2.40
2018-08-22T03:34:45.290Z,2.40
2018-08-22T03:35:19.133Z,2.40
2018-08-22T03:35:52.987Z,2.53
2018-08-22T03:36:26.867Z,2.37
2018-08-22T03:37:00.695Z,2.40
2018-08-22T03:37:34.597Z,2.70
2018-08-22T03:38:08.437Z,2.27
2018-08-22T03:38:42.315Z,2.10
2018-08-22T03:39:16.220Z,2.40
2018-08-22T03:39:50.074Z,2.00
2018-08-22T03:40:24.274Z,2.23
2018-08-22T03:40:58.121Z,2.30
2018-08-22T03:41:32.000Z,2.60
2018-08-22T03:42:05.861Z,2.57
2018-08-22T03:42:39.692Z,2.70
2018-08-22T03:43:13.581Z,2.00
2018-08-22T03:43:47.456Z,2.43
2018-08-22T03:44:21.369Z,2.43
2018-08-22T03:44:55.216Z,2.80
2018-08-22T03:45:29.141Z,2.50
2018-08-22T03:46:03.036Z,2.77
2018-08-22T03:46:36.872Z,2.20
2018-08-22T03:47:10.828Z,2.33
2018-08-22T03:47:44.698Z,3.00
2018-08-22T03:48:18.560Z,2.33
2018-08-22T03:48:52.422Z,2.30
2018-08-22T03:49:26.318Z,2.27
2018-08-22T03:50:00.160Z,2.50
2018-08-22T03:50:34.010Z,2.67
2018-08-22T03:51:07.854Z,2.00
2018-08-22T03:51:41.740Z,2.57
2018-08-22T03:52:16.038Z,2.70
2018-08-22T03:52:49.892Z,2.50
2018-08-22T03:53:23.821Z,2.40
2018-08-22T03:53:57.714Z,2.43
2018-08-22T03:54:31.610Z,2.30
2018-08-22T03:55:05.508Z,2.33
2018-08-22T03:55:39.361Z,2.37
2018-08-22T03:56:13.218Z,2.33
2018-08-22T03:56:47.095Z,2.93
2018-08-22T03:57:21.006Z,2.93
2018-08-22T03:57:54.900Z,2.60
2018-08-22T03:58:29.104Z,2.93
2018-08-22T03:59:02.960Z,2.90
2018-08-22T03:59:36.900Z,2.53
2018-08-22T04:00:11.477Z,2.57
2018-08-22T04:00:45.711Z,2.43
2018-08-22T04:01:19.612Z,2.10
2018-08-22T04:01:53.459Z,2.37
2018-08-22T04:02:27.562Z,2.60
2018-08-22T04:03:01.417Z,2.80
2018-08-22T04:03:35.299Z,2.50
2018-08-22T04:04:09.183Z,2.70
2018-08-22T04:04:43.093Z,2.63
2018-08-22T04:05:16.930Z,2.33
2018-08-22T04:05:50.824Z,2.60
2018-08-22T04:06:24.708Z,2.63
2018-08-22T04:06:58.565Z,2.40
2018-08-22T04:07:32.440Z,2.97
2018-08-22T04:08:06.428Z,2.87
2018-08-22T04:08:40.282Z,2.33
2018-08-22T04:09:14.128Z,3.03
2018-08-22T04:09:47.981Z,2.77
2018-08-22T04:10:21.808Z,3.20
2018-08-22T04:10:55.974Z,2.20
2018-08-22T04:11:29.871Z,2.90
2018-08-22T04:12:03.887Z,2.47
2018-08-22T04:12:37.801Z,2.80
2018-08-22T04:13:11.714Z,2.80
2018-08-22T04:13:45.616Z,2.87
2018-08-22T04:14:19.562Z,2.67
2018-08-22T04:14:53.519Z,3.00
2018-08-22T04:15:27.355Z,2.80
2018-08-22T04:16:01.285Z,3.07
2018-08-22T04:16:35.171Z,2.93
2018-08-22T04:17:09.078Z,2.60
2018-08-22T04:17:42.916Z,2.10
2018-08-22T04:18:16.808Z,2.90
2018-08-22T04:18:50.737Z,2.90
2018-08-22T04:19:24.599Z,3.77
2018-08-22T04:19:58.474Z,3.57
2018-08-22T04:20:32.293Z,3.50
2018-08-22T04:21:06.253Z,7.27
2018-08-22T04:21:40.111Z,6.47
2018-08-22T04:22:13.972Z,3.70
2018-08-22T04:22:47.849Z,3.63
2018-08-22T04:23:21.800Z,2.67
2018-08-22T04:23:55.676Z,2.87
2018-08-22T04:24:29.554Z,3.37
2018-08-22T04:25:03.442Z,2.73
2018-08-22T04:25:37.274Z,3.20
2018-08-22T04:26:11.143Z,2.93
2018-08-22T04:26:44.998Z,2.93
2018-08-22T04:27:18.816Z,3.40
2018-08-22T04:27:52.654Z,2.80
2018-08-22T04:28:26.508Z,2.93
2018-08-22T04:29:00.347Z,3.47
2018-08-22T04:29:34.175Z,3.30
2018-08-22T04:30:08.051Z,3.57
2018-08-22T04:30:41.920Z,2.70
2018-08-22T04:31:15.777Z,3.40
2018-08-22T04:31:49.652Z,3.03
2018-08-22T04:32:23.505Z,3.10
2018-08-22T04:32:57.456Z,2.53
2018-08-22T04:33:31.356Z,2.20
2018-08-22T04:34:05.297Z,3.17
2018-08-22T04:34:39.145Z,3.13
2018-08-22T04:35:13.075Z,3.27
2018-08-22T04:35:46.981Z,3.20
2018-08-22T04:36:20.834Z,2.70
2018-08-22T04:36:54.744Z,2.10
2018-08-22T04:37:28.634Z,2.63
2018-08-22T04:38:02.991Z,3.00
2018-08-22T04:38:36.850Z,2.40
2018-08-22T04:39:10.701Z,2.47
2018-08-22T04:39:44.607Z,3.27
2018-08-22T04:40:18.822Z,3.40
2018-08-22T04:40:52.650Z,2.70
2018-08-22T04:41:26.513Z,2.43
2018-08-22T04:42:00.445Z,2.97
2018-08-22T04:42:34.325Z,3.37
2018-08-22T04:43:08.181Z,2.60
2018-08-22T04:43:42.025Z,2.47
2018-08-22T04:44:15.902Z,3.33
2018-08-22T04:44:49.953Z,3.03
2018-08-22T04:45:23.845Z,3.03
2018-08-22T04:45:57.732Z,2.53
2018-08-22T04:46:31.753Z,3.03
2018-08-22T04:47:05.677Z,2.77
2018-08-22T04:47:39.573Z,2.93
2018-08-22T04:48:13.440Z,2.93
2018-08-22T04:48:47.543Z,3.27
2018-08-22T04:49:21.387Z,2.80
2018-08-22T04:49:55.259Z,2.60
2018-08-22T04:50:29.169Z,3.17
2018-08-22T04:51:03.054Z,2.60
2018-08-22T04:51:39.316Z,3.20
2018-08-22T04:52:14.496Z,3.07
2018-08-22T04:52:48.346Z,2.67
2018-08-22T04:53:22.190Z,2.93
2018-08-22T04:53:56.076Z,3.40
2018-08-22T04:54:29.963Z,3.07
2018-08-22T04:55:03.835Z,2.67
2018-08-22T04:55:37.731Z,2.57
2018-08-22T04:56:11.653Z,3.90
2018-08-22T04:56:45.490Z,2.93
2018-08-22T04:57:19.350Z,3.30
2018-08-22T04:57:53.217Z,3.00
2018-08-22T04:58:28.264Z,3.17
2018-08-22T04:59:02.099Z,2.77
2018-08-22T04:59:35.953Z,3.23
2018-08-22T05:00:10.552Z,2.83
2018-08-22T05:00:44.499Z,2.97
2018-08-22T05:01:18.327Z,3.13
2018-08-22T05:01:52.149Z,2.67
2018-08-22T05:02:26.007Z,2.70
2018-08-22T05:03:00.193Z,2.97
2018-08-22T05:03:34.048Z,3.57
2018-08-22T05:04:08.465Z,2.83
2018-08-22T05:04:42.655Z,3.10
2018-08-22T05:05:16.879Z,3.03
2018-08-22T05:05:50.863Z,2.90
2018-08-22T05:06:24.901Z,2.50
2018-08-22T05:06:59.655Z,3.20
2018-08-22T05:07:34.102Z,3.17
2018-08-22T05:08:07.992Z,2.50
2018-08-22T05:08:41.851Z,2.43
2018-08-22T05:09:15.753Z,3.07
2018-08-22T05:09:49.643Z,3.40
2018-08-22T05:10:23.536Z,3.00
2018-08-22T05:10:57.456Z,3.17
2018-08-22T05:11:31.379Z,2.90
2018-08-22T05:12:05.217Z,3.00
2018-08-22T05:12:39.134Z,2.97
2018-08-22T05:13:13.047Z,2.97
2018-08-22T05:13:46.915Z,2.80
2018-08-22T05:14:21.151Z,2.43
2018-08-22T05:14:55.019Z,3.00
2018-08-22T05:15:28.913Z,2.93
2018-08-22T05:16:02.848Z,2.90
2018-08-22T05:16:36.675Z,3.00
2018-08-22T05:17:10.559Z,3.00
2018-08-22T05:17:44.393Z,2.53
2018-08-22T05:18:18.263Z,2.83
2018-08-22T05:18:52.118Z,2.60
2018-08-22T05:19:25.977Z,3.03
2018-08-22T05:19:59.896Z,2.80
2018-08-22T05:20:33.813Z,2.70
2018-08-22T05:21:07.693Z,2.90
2018-08-22T05:21:41.749Z,2.70
2018-08-22T05:22:16.095Z,2.93
2018-08-22T05:22:50.039Z,2.87
2018-08-22T05:23:23.927Z,3.07
2018-08-22T05:23:57.921Z,2.90
2018-08-22T05:24:32.049Z,3.10
2018-08-22T05:25:06.419Z,3.17
2018-08-22T05:25:40.284Z,3.00
2018-08-22T05:26:14.172Z,3.00
2018-08-22T05:26:48.027Z,3.00
2018-08-22T05:27:21.890Z,2.80
2018-08-22T05:27:55.769Z,2.93
2018-08-22T05:28:29.747Z,2.60
2018-08-22T05:29:03.715Z,2.90
2018-08-22T05:29:37.649Z,3.07
2018-08-22T05:30:11.521Z,3.00
2018-08-22T05:30:45.539Z,2.70
2018-08-22T05:31:19.401Z,2.77
2018-08-22T05:31:53.239Z,2.50
2018-08-22T05:32:27.941Z,2.80
2018-08-22T05:33:01.893Z,2.30
2018-08-22T05:33:35.769Z,2.73
2018-08-22T05:34:09.623Z,2.50
2018-08-22T05:34:43.479Z,2.97
2018-08-22T05:35:17.320Z,2.47
2018-08-22T05:35:51.185Z,2.00
2018-08-22T05:37:05.229Z,2.60
2018-08-22T05:37:39.089Z,2.20
2018-08-22T05:38:12.973Z,2.50
2018-08-22T05:38:47.607Z,2.57
2018-08-22T05:39:21.607Z,2.27
2018-08-22T05:39:55.537Z,2.20
2018-08-22T05:40:29.416Z,2.93
2018-08-22T05:41:03.293Z,2.37
2018-08-22T05:41:37.299Z,2.40
2018-08-22T05:42:11.198Z,2.20
2018-08-22T05:42:45.040Z,2.37
2018-08-22T05:43:18.895Z,2.63
2018-08-22T05:43:52.775Z,2.40
2018-08-22T05:44:26.613Z,1.97
2018-08-22T05:45:00.550Z,2.83
2018-08-22T05:45:34.385Z,1.93
2018-08-22T05:46:08.217Z,2.13
2018-08-22T05:46:42.091Z,2.13
2018-08-22T05:47:15.945Z,2.53
2018-08-22T05:47:49.881Z,2.43
2018-08-22T05:48:30.436Z,2.77
2018-08-22T05:49:04.907Z,2.10
2018-08-22T05:49:38.978Z,1.90
2018-08-22T05:50:12.843Z,2.37
2018-08-22T05:50:46.691Z,2.30
2018-08-22T05:51:20.541Z,2.33
2018-08-22T05:51:54.853Z,1.90
2018-08-22T05:52:28.729Z,1.80
2018-08-22T05:53:03.048Z,1.90
2018-08-22T05:53:36.892Z,2.30
2018-08-22T05:54:10.781Z,1.97
2018-08-22T05:54:44.641Z,2.37
2018-08-22T05:55:18.647Z,2.73
2018-08-22T05:55:52.550Z,2.60
2018-08-22T05:56:26.399Z,2.37
2018-08-22T05:57:01.222Z,2.00
2018-08-22T05:57:35.219Z,2.10
2018-08-22T05:58:09.269Z,1.87
2018-08-22T05:58:43.127Z,2.33
2018-08-22T05:59:17.021Z,1.80
2018-08-22T05:59:51.241Z,1.80
2018-08-22T06:00:25.119Z,1.60
2018-08-22T06:00:59.031Z,2.07
2018-08-22T06:01:33.253Z,1.70
2018-08-22T06:02:07.517Z,2.63
2018-08-22T06:02:41.391Z,1.93
2018-08-22T06:03:15.627Z,1.90
2018-08-22T06:03:49.813Z,2.27
2018-08-22T06:04:23.669Z,2.20
2018-08-22T06:04:57.522Z,2.37
2018-08-22T06:05:31.378Z,1.90
2018-08-22T06:06:05.598Z,2.00
2018-08-22T06:06:39.454Z,1.90
2018-08-22T06:07:13.341Z,1.97
2018-08-22T06:07:47.217Z,2.03
2018-08-22T06:08:21.098Z,1.97
2018-08-22T06:08:55.051Z,2.20
2018-08-22T06:09:28.993Z,1.63
2018-08-22T06:10:02.867Z,2.17
2018-08-22T06:10:36.746Z,1.80
2018-08-22T06:11:10.580Z,2.23
2018-08-22T06:11:44.955Z,1.80
2018-08-22T06:12:18.823Z,1.63
2018-08-22T06:12:52.668Z,2.07
2018-08-22T06:13:26.505Z,2.20
2018-08-22T06:14:00.345Z,2.83
2018-08-22T06:14:34.202Z,2.73
2018-08-22T06:15:08.049Z,2.83
2018-08-22T06:15:41.972Z,2.10
2018-08-22T06:16:16.012Z,1.70
2018-08-22T06:16:49.918Z,1.80
2018-08-22T06:17:23.789Z,1.80
2018-08-22T06:17:57.903Z,2.23
2018-08-22T06:18:31.800Z,2.20
2018-08-22T06:19:05.785Z,2.33
2018-08-22T06:19:39.715Z,2.10
2018-08-22T06:20:13.610Z,1.83
2018-08-22T06:20:47.497Z,1.87
2018-08-22T06:21:21.364Z,1.67
2018-08-22T06:21:55.274Z,1.80
2018-08-22T06:22:29.153Z,1.70
2018-08-22T06:23:03.354Z,1.93
2018-08-22T06:23:37.206Z,1.77
2018-08-22T06:24:11.070Z,1.77
2018-08-22T06:24:44.954Z,1.80
2018-08-22T06:25:18.801Z,1.60
2018-08-22T06:25:52.664Z,2.27
2018-08-22T06:26:26.920Z,1.93
2018-08-22T06:27:01.074Z,1.83
2018-08-22T06:27:34.978Z,2.03
2018-08-22T06:28:08.832Z,1.60
2018-08-22T06:28:42.820Z,1.27
2018-08-22T06:29:16.676Z,1.80
2018-08-22T06:29:50.534Z,1.30
2018-08-22T06:30:24.406Z,1.93
2018-08-22T06:30:58.268Z,1.70
2018-08-22T06:31:32.226Z,1.50
2018-08-22T06:32:06.095Z,2.10
2018-08-22T06:32:39.952Z,1.57
2018-08-22T06:33:13.800Z,1.50
2018-08-22T06:33:47.697Z,1.50
2018-08-22T06:34:21.542Z,1.80
2018-08-22T06:34:55.413Z,2.20
2018-08-22T06:35:29.268Z,1.57
2018-08-22T06:36:03.148Z,1.40
2018-08-22T06:36:36.990Z,1.47
2018-08-22T06:37:10.848Z,1.40
2018-08-22T06:37:44.818Z,1.63
2018-08-22T06:38:18.876Z,1.60
2018-08-22T06:38:52.756Z,1.40
2018-08-22T06:39:26.600Z,1.40
2018-08-22T06:40:00.460Z,1.50
2018-08-22T06:40:34.350Z,1.73
2018-08-22T06:41:08.186Z,1.37
2018-08-22T06:41:42.036Z,1.53
2018-08-22T06:42:15.934Z,1.90
2018-08-22T06:42:49.779Z,1.40
2018-08-22T06:43:23.626Z,2.00
2018-08-22T06:43:57.504Z,1.33
2018-08-22T06:44:31.378Z,1.73
2018-08-22T06:45:07.409Z,1.50
2018-08-22T06:45:41.248Z,1.70
2018-08-22T06:46:15.296Z,1.30
2018-08-22T06:46:49.170Z,2.00
2018-08-22T06:47:23.005Z,1.73
2018-08-22T06:47:56.876Z,1.50
2018-08-22T06:48:30.724Z,1.60
2018-08-22T06:49:05.059Z,1.20
2018-08-22T06:49:38.918Z,1.50
2018-08-22T06:50:12.846Z,1.20
2018-08-22T06:50:46.884Z,1.40
2018-08-22T06:51:20.720Z,1.67
2018-08-22T06:51:54.594Z,1.63
2018-08-22T06:52:28.429Z,1.47
2018-08-22T06:53:02.323Z,1.73
2018-08-22T06:53:36.511Z,1.73
2018-08-22T06:54:10.356Z,1.47
2018-08-22T06:54:44.228Z,1.60
2018-08-22T06:55:18.146Z,1.60
2018-08-22T06:55:52.344Z,1.70
2018-08-22T06:56:26.204Z,1.30
2018-08-22T06:57:00.242Z,1.30
2018-08-22T06:57:34.283Z,1.40
2018-08-22T06:58:09.019Z,1.50
2018-08-22T06:58:43.438Z,1.83
2018-08-22T06:59:17.314Z,1.80
2018-08-22T06:59:51.266Z,1.37
2018-08-22T07:00:25.118Z,1.33
2018-08-22T07:00:59.012Z,1.70
2018-08-22T07:01:32.854Z,1.43
2018-08-22T07:02:06.706Z,1.30
2018-08-22T07:02:40.560Z,1.60
2018-08-22T07:03:14.424Z,1.30
2018-08-22T07:03:48.297Z,1.20
2018-08-22T07:04:22.179Z,1.10
2018-08-22T07:04:56.353Z,1.73
2018-08-22T07:05:30.286Z,1.50
2018-08-22T07:06:04.390Z,1.37
2018-08-22T07:06:38.266Z,1.10
2018-08-22T07:07:12.262Z,1.50
2018-08-22T07:07:46.080Z,1.53
2018-08-22T07:08:20.004Z,1.50
2018-08-22T07:08:53.860Z,1.40
2018-08-22T07:09:27.716Z,1.27
2018-08-22T07:10:01.577Z,1.37
2018-08-22T07:10:35.659Z,1.20
2018-08-22T07:11:09.530Z,1.10
2018-08-22T07:11:43.393Z,1.50
2018-08-22T07:12:17.239Z,1.37
2018-08-22T07:12:51.123Z,1.37
2018-08-22T07:13:25.017Z,1.50
2018-08-22T07:13:58.922Z,1.33
2018-08-22T07:14:32.991Z,1.47
2018-08-22T07:15:07.905Z,1.60
2018-08-22T07:15:41.722Z,2.23
2018-08-22T07:16:15.917Z,1.33
2018-08-22T07:16:49.773Z,1.40
2018-08-22T07:17:23.650Z,1.27
2018-08-22T07:17:57.532Z,1.30
2018-08-22T07:18:31.422Z,1.40
2018-08-22T07:19:05.800Z,1.23
2018-08-22T07:19:39.663Z,1.33
2018-08-22T07:20:13.489Z,1.47
2018-08-22T07:20:47.817Z,1.37
2018-08-22T07:21:21.815Z,1.30
2018-08-22T07:21:55.666Z,1.40
2018-08-22T07:22:29.505Z,1.93
2018-08-22T07:23:03.363Z,1.40
2018-08-22T07:23:37.285Z,1.40
2018-08-22T07:24:11.734Z,1.20
2018-08-22T07:24:45.561Z,1.93
2018-08-22T07:25:19.441Z,3.53
2018-08-22T07:25:53.296Z,1.90
2018-08-22T07:26:27.208Z,1.40
2018-08-22T07:27:01.137Z,1.60
2018-08-22T07:27:35.005Z,1.23
2018-08-22T07:28:08.870Z,1.40
2018-08-22T07:28:42.749Z,1.13
2018-08-22T07:29:16.655Z,1.63
2018-08-22T07:29:50.540Z,1.20
2018-08-22T07:30:24.422Z,1.20
2018-08-22T07:30:58.263Z,1.10
2018-08-22T07:31:32.152Z,1.13
2018-08-22T07:32:06.346Z,1.67
2018-08-22T07:32:40.207Z,1.40
2018-08-22T07:33:14.203Z,1.10
2018-08-22T07:33:48.119Z,1.13
2018-08-22T07:34:21.977Z,1.63
2018-08-22T07:34:55.855Z,1.30
2018-08-22T07:35:29.695Z,1.40
2018-08-22T07:36:03.930Z,1.30
2018-08-22T07:36:38.269Z,1.33
2018-08-22T07:37:12.127Z,1.40
2018-08-22T07:37:45.988Z,1.43
2018-08-22T07:38:19.900Z,1.10
2018-08-22T07:38:54.140Z,1.30
2018-08-22T07:39:27.997Z,1.10
2018-08-22T07:40:41.952Z,1.20